Time;durP1;ratioP1;P1;durP2;ratioP2;P2;SDS_P1;SDS_P2;PMS_P1;PMS_P2;Temp;Humidity;BMP_temperature;BMP_pressure;BME280_temperature;BME280_humidity;BME280_pressure;Samples;Min_cycle;Max_cycle;Signal;HPM_P1;HPM_P2
2023/02/26 00:01:36;;;;;;;4.35;1.80;;;18.30;32.10;;;;;;5052963;28;20779;-69
2023/02/26 00:04:05;;;;;;;3.70;1.23;;;18.30;32.10;;;;;;5055714;28;20187;-70
2023/02/26 00:06:34;;;;;;;7.03;2.13;;;18.30;32.10;;;;;;5056100;28;20261;-65
2023/02/26 00:09:02;;;;;;;5.72;1.50;;;18.20;32.10;;;;;;5055966;28;20266;-67
2023/02/26 00:11:29;;;;;;;4.38;1.63;;;18.20;32.10;;;;;;5055781;28;20231;-64
2023/02/26 00:13:57;;;;;;;7.15;1.67;;;18.30;32.20;;;;;;5055530;28;20658;-67
2023/02/26 00:16:28;;;;;;;5.13;1.80;;;18.30;32.20;;;;;;5055734;28;20293;-64
2023/02/26 00:18:57;;;;;;;4.30;1.70;;;18.20;32.20;;;;;;5055483;28;20257;-64
2023/02/26 00:21:26;;;;;;;3.55;1.27;;;18.20;32.20;;;;;;5055160;28;20797;-67
2023/02/26 00:23:54;;;;;;;5.45;2.17;;;18.20;32.20;;;;;;5055909;28;20195;-64
2023/02/26 00:26:21;;;;;;;6.75;2.00;;;18.20;32.20;;;;;;5055563;28;20219;-66
2023/02/26 00:28:49;;;;;;;6.28;1.70;;;18.20;32.20;;;;;;5055178;28;20245;-69
2023/02/26 00:31:19;;;;;;;5.82;1.80;;;18.20;32.20;;;;;;5055348;28;20237;-68
2023/02/26 00:33:47;;;;;;;6.70;1.33;;;18.20;32.20;;;;;;5055498;28;20226;-70
2023/02/26 00:36:22;;;;;;;5.65;1.60;;;18.20;32.30;;;;;;5055489;28;20220;-62
2023/02/26 00:39:01;;;;;;;5.18;1.80;;;18.10;32.20;;;;;;5055409;28;20188;-62
2023/02/26 00:41:29;;;;;;;6.75;2.05;;;18.20;32.30;;;;;;5055322;28;20219;-63
2023/02/26 00:43:57;;;;;;;5.53;1.95;;;18.20;32.30;;;;;;5055258;28;20286;-65
2023/02/26 00:46:35;;;;;;;3.88;1.40;;;18.10;32.20;;;;;;5055082;28;20262;-67
2023/02/26 00:49:12;;;;;;;6.50;1.80;;;18.20;32.40;;;;;;5055163;28;20192;-63
2023/02/26 00:51:48;;;;;;;4.22;1.70;;;18.10;32.30;;;;;;5055201;28;20231;-64
2023/02/26 00:54:20;;;;;;;5.70;1.70;;;18.10;32.30;;;;;;5055074;28;20196;-65
2023/02/26 00:56:47;;;;;;;5.75;1.60;;;18.10;32.30;;;;;;5055213;28;20215;-66
2023/02/26 00:59:14;;;;;;;6.32;1.98;;;18.10;32.40;;;;;;5054615;28;20214;-64
2023/02/26 01:01:42;;;;;;;4.65;1.50;;;18.10;32.30;;;;;;5054989;28;20283;-71
2023/02/26 01:04:10;;;;;;;5.47;1.73;;;18.10;32.30;;;;;;5054548;28;20196;-71
2023/02/26 01:06:44;;;;;;;5.32;2.28;;;18.10;32.40;;;;;;5054963;28;20215;-67
2023/02/26 01:09:21;;;;;;;4.40;1.50;;;18.10;32.40;;;;;;5054801;28;20195;-71
2023/02/26 01:11:49;;;;;;;3.03;1.55;;;18.10;32.40;;;;;;5054866;28;20230;-72
2023/02/26 01:14:17;;;;;;;4.32;1.42;;;18.10;32.40;;;;;;5053610;28;20653;-67
2023/02/26 01:16:53;;;;;;;7.13;1.60;;;18.10;32.40;;;;;;5054372;28;20721;-69
2023/02/26 01:19:27;;;;;;;5.13;1.65;;;18.10;32.40;;;;;;5054296;28;20222;-71
2023/02/26 01:22:03;;;;;;;9.75;1.85;;;18.10;32.40;;;;;;5054733;28;20272;-72
2023/02/26 01:24:33;;;;;;;4.13;1.60;;;18.10;32.40;;;;;;5054415;28;20203;-60
2023/02/26 01:27:01;;;;;;;13.38;1.70;;;18.00;32.40;;;;;;5054398;28;20226;-71
2023/02/26 01:29:28;;;;;;;6.68;1.92;;;18.00;32.30;;;;;;5054111;28;20195;-68
2023/02/26 01:32:05;;;;;;;5.57;1.90;;;18.10;32.40;;;;;;5054434;28;20430;-72
2023/02/26 01:34:39;;;;;;;4.97;1.52;;;18.00;32.40;;;;;;5054352;28;20184;-72
2023/02/26 01:37:26;;;;;;;6.60;2.00;;;18.00;32.30;;;;;;5054461;28;20220;-70
2023/02/26 01:40:21;;;;;;;6.97;1.67;;;18.00;32.30;;;;;;5054607;28;20188;-71
2023/02/26 01:42:51;;;;;;;6.50;1.60;;;18.00;32.40;;;;;;5074041;28;20260;-71
2023/02/26 01:45:23;;;;;;;6.20;1.35;;;18.00;32.40;;;;;;5074035;28;20241;-71
2023/02/26 01:47:56;;;;;;;4.40;1.63;;;18.00;32.40;;;;;;5073753;28;20652;-71
2023/02/26 01:50:28;;;;;;;5.38;1.45;;;18.00;32.50;;;;;;5073519;28;20211;-71
2023/02/26 01:53:18;;;;;;;4.88;1.65;;;18.00;32.40;;;;;;5073921;28;20194;-68
2023/02/26 01:55:49;;;;;;;7.20;1.48;;;18.00;32.40;;;;;;5073984;28;20222;-71
2023/02/26 01:58:17;;;;;;;5.20;1.77;;;17.90;32.40;;;;;;5073863;28;20197;-70
2023/02/26 02:00:44;;;;;;;6.43;1.50;;;17.90;32.40;;;;;;5073429;28;20301;-65
2023/02/26 02:03:11;;;;;;;6.18;1.80;;;17.90;32.50;;;;;;5073687;28;20252;-72
2023/02/26 02:05:43;;;;;;;6.13;1.60;;;17.90;32.40;;;;;;5073654;28;20191;-72
2023/02/26 02:08:11;;;;;;;4.75;1.33;;;18.00;32.50;;;;;;5073685;28;20191;-70
2023/02/26 02:10:42;;;;;;;4.15;1.52;;;17.90;32.50;;;;;;5073143;28;20214;-70
2023/02/26 02:13:19;;;;;;;3.50;1.60;;;18.00;32.70;;;;;;5073290;28;20734;-71
2023/02/26 02:15:54;;;;;;;3.95;1.40;;;17.90;32.50;;;;;;5073220;28;20215;-70
2023/02/26 02:18:27;;;;;;;4.70;2.00;;;17.90;32.50;;;;;;5073341;28;20618;-71
2023/02/26 02:21:23;;;;;;;6.43;1.80;;;17.90;32.60;;;;;;5072934;28;20227;-71
2023/02/26 02:23:57;;;;;;;5.28;1.83;;;18.00;32.60;;;;;;5071375;28;20198;-71
2023/02/26 02:26:54;;;;;;;6.30;1.60;;;17.90;32.60;;;;;;5072554;28;20276;-71
2023/02/26 02:29:53;;;;;;;3.70;1.48;;;17.90;32.50;;;;;;5073074;28;20187;-63
2023/02/26 02:32:26;;;;;;;5.32;1.90;;;17.90;32.60;;;;;;5072939;28;20230;-71
2023/02/26 02:34:57;;;;;;;5.85;1.50;;;17.90;32.70;;;;;;5073144;28;20245;-71
2023/02/26 02:37:30;;;;;;;5.80;1.83;;;17.90;32.70;;;;;;5072969;28;20215;-71
2023/02/26 02:40:01;;;;;;;4.57;1.50;;;17.90;32.70;;;;;;5072967;28;20231;-70
2023/02/26 02:42:34;;;;;;;6.43;1.30;;;17.90;32.70;;;;;;5073154;28;20272;-68
2023/02/26 02:45:05;;;;;;;3.45;1.60;;;17.90;32.70;;;;;;5072990;28;20221;-70
2023/02/26 02:47:38;;;;;;;5.22;1.70;;;17.90;32.70;;;;;;5072757;28;20634;-71
2023/02/26 02:50:12;;;;;;;6.78;1.60;;;17.90;32.70;;;;;;5072898;28;20186;-67
2023/02/26 02:52:44;;;;;;;4.55;1.48;;;17.90;32.70;;;;;;5072836;28;20234;-70
2023/02/26 02:55:16;;;;;;;5.15;1.65;;;17.90;32.70;;;;;;5072853;28;20194;-71
2023/02/26 02:57:49;;;;;;;4.97;1.55;;;17.80;32.70;;;;;;5072736;28;20264;-69
2023/02/26 03:00:17;;;;;;;5.97;1.40;;;17.80;32.70;;;;;;5072521;28;20592;-72
2023/02/26 03:02:52;;;;;;;5.25;1.50;;;17.80;32.70;;;;;;5072560;28;20645;-68
2023/02/26 03:05:19;;;;;;;5.13;1.73;;;17.80;32.70;;;;;;5072662;28;20603;-70
2023/02/26 03:07:57;;;;;;;6.65;1.88;;;17.80;32.70;;;;;;5072546;28;20214;-70
2023/02/26 03:10:24;;;;;;;9.38;1.90;;;17.80;32.70;;;;;;5072122;28;20195;-71
2023/02/26 03:12:51;;;;;;;5.65;2.15;;;17.80;32.70;;;;;;5072355;28;20268;-72
2023/02/26 03:15:26;;;;;;;4.95;1.70;;;17.80;32.70;;;;;;5072620;28;20241;-61
2023/02/26 03:18:00;;;;;;;5.85;1.83;;;17.80;32.70;;;;;;5072460;28;20260;-63
2023/02/26 03:20:33;;;;;;;4.57;1.70;;;17.80;32.80;;;;;;5072219;28;20244;-67
2023/02/26 03:23:09;;;;;;;8.02;2.05;;;17.80;32.80;;;;;;5072177;28;20236;-66
2023/02/26 03:25:45;;;;;;;3.63;1.63;;;17.80;32.80;;;;;;5072274;28;20186;-67
2023/02/26 03:28:20;;;;;;;5.15;1.90;;;17.80;32.80;;;;;;5072454;28;20197;-61
2023/02/26 03:30:50;;;;;;;4.32;1.40;;;17.80;32.90;;;;;;5071866;28;20236;-64
2023/02/26 03:33:26;;;;;;;4.70;1.60;;;17.80;32.90;;;;;;5071935;28;20249;-64
2023/02/26 03:35:57;;;;;;;6.78;1.70;;;17.80;32.90;;;;;;5071536;28;20218;-67
2023/02/26 03:38:32;;;;;;;5.30;1.80;;;17.80;32.90;;;;;;5072013;28;20191;-63
2023/02/26 03:41:04;;;;;;;3.47;1.90;;;17.80;32.90;;;;;;5072142;28;20218;-65
2023/02/26 03:43:36;;;;;;;4.90;1.55;;;17.80;32.90;;;;;;5072010;28;20187;-60
2023/02/26 03:46:07;;;;;;;6.45;1.90;;;17.80;32.90;;;;;;5071805;28;20215;-62
2023/02/26 03:48:37;;;;;;;5.32;1.85;;;17.80;33.00;;;;;;5071939;28;20183;-64
2023/02/26 03:51:08;;;;;;;7.60;1.90;;;17.70;32.90;;;;;;5072006;28;20296;-67
2023/02/26 03:53:40;;;;;;;6.40;1.73;;;17.70;33.00;;;;;;5071907;28;20602;-61
2023/02/26 03:56:15;;;;;;;6.80;1.70;;;17.70;33.00;;;;;;5071769;28;20273;-61
2023/02/26 03:58:42;;;;;;;4.30;1.60;;;17.70;33.00;;;;;;5072124;28;20191;-63
2023/02/26 04:01:17;;;;;;;6.95;1.77;;;17.70;33.00;;;;;;5072026;28;20218;-63
2023/02/26 04:03:50;;;;;;;4.65;1.70;;;17.70;33.10;;;;;;5072080;28;20191;-62
2023/02/26 04:06:19;;;;;;;4.45;1.30;;;17.70;33.10;;;;;;5071483;28;20708;-63
2023/02/26 04:08:47;;;;;;;4.65;1.75;;;17.70;33.10;;;;;;5071710;28;20586;-60
2023/02/26 04:11:17;;;;;;;5.05;1.60;;;17.70;33.10;;;;;;5071847;28;20317;-63
2023/02/26 04:13:44;;;;;;;4.65;1.67;;;17.70;33.20;;;;;;5071638;28;20237;-67
2023/02/26 04:16:12;;;;;;;5.07;1.35;;;17.70;33.20;;;;;;5071574;28;20219;-65
2023/02/26 04:18:40;;;;;;;4.57;1.70;;;17.70;33.20;;;;;;5071379;28;20600;-63
2023/02/26 04:21:11;;;;;;;4.10;1.40;;;17.70;33.20;;;;;;5071857;28;20223;-63
2023/02/26 04:23:39;;;;;;;7.57;1.50;;;17.70;33.20;;;;;;5071902;28;20186;-62
2023/02/26 04:26:06;;;;;;;4.82;2.03;;;17.70;33.20;;;;;;5071807;28;20215;-62
2023/02/26 04:28:34;;;;;;;3.78;1.60;;;17.70;33.30;;;;;;5071810;28;20187;-61
2023/02/26 04:31:01;;;;;;;5.35;1.67;;;17.70;33.30;;;;;;5071262;28;20250;-61
2023/02/26 04:33:28;;;;;;;4.25;1.83;;;17.70;33.30;;;;;;5071808;28;20195;-64
2023/02/26 04:35:55;;;;;;;5.78;1.65;;;17.70;33.30;;;;;;5071743;28;20195;-68
2023/02/26 04:38:23;;;;;;;4.53;1.75;;;17.70;33.30;;;;;;5071405;28;20187;-71
2023/02/26 04:40:51;;;;;;;4.32;1.50;;;17.60;33.30;;;;;;5071364;28;20187;-71
2023/02/26 04:43:18;;;;;;;7.35;2.05;;;17.70;33.40;;;;;;5071759;28;20195;-71
2023/02/26 04:45:46;;;;;;;5.47;1.80;;;17.70;33.40;;;;;;5071348;28;20702;-70
2023/02/26 04:48:13;;;;;;;6.88;2.10;;;17.70;33.50;;;;;;5072279;28;20187;-71
2023/02/26 04:50:41;;;;;;;7.50;2.03;;;17.60;33.40;;;;;;5074833;28;20591;-71
2023/02/26 04:53:08;;;;;;;4.88;1.90;;;17.60;33.40;;;;;;5075025;28;20214;-71
2023/02/26 04:55:38;;;;;;;5.90;1.85;;;17.70;33.50;;;;;;5075157;28;20191;-71
2023/02/26 04:58:05;;;;;;;5.18;1.67;;;17.60;33.40;;;;;;5075153;28;20249;-71
2023/02/26 05:00:33;;;;;;;6.68;1.63;;;17.60;33.40;;;;;;5074881;28;20191;-71
2023/02/26 05:03:00;;;;;;;6.15;1.98;;;17.60;33.50;;;;;;5074832;28;20277;-71
2023/02/26 05:05:27;;;;;;;4.95;1.73;;;17.60;33.50;;;;;;5075006;28;20191;-61
2023/02/26 05:07:55;;;;;;;8.13;2.10;;;17.60;33.50;;;;;;5074909;28;20219;-71
2023/02/26 05:10:22;;;;;;;4.20;1.50;;;17.60;33.50;;;;;;5074794;28;20218;-71
2023/02/26 05:12:51;;;;;;;6.78;1.67;;;17.60;33.50;;;;;;5074491;28;20263;-72
2023/02/26 05:15:19;;;;;;;6.07;1.75;;;17.60;33.50;;;;;;5074467;28;20187;-70
2023/02/26 05:17:46;;;;;;;6.35;1.58;;;17.60;33.50;;;;;;5074685;28;20214;-66
2023/02/26 05:20:14;;;;;;;7.35;1.70;;;17.60;33.50;;;;;;5074272;28;20230;-64
2023/02/26 05:22:41;;;;;;;6.80;1.90;;;17.60;33.50;;;;;;5074739;28;20218;-67
2023/02/26 05:25:11;;;;;;;6.97;1.80;;;17.60;33.60;;;;;;5074524;28;20194;-66
2023/02/26 05:27:39;;;;;;;6.70;1.63;;;17.60;33.60;;;;;;5074315;28;20603;-64
2023/02/26 05:30:10;;;;;;;5.55;1.63;;;17.60;33.60;;;;;;5074406;28;20566;-64
2023/02/26 05:32:38;;;;;;;5.10;1.75;;;17.60;33.60;;;;;;5074134;28;20230;-65
2023/02/26 05:35:06;;;;;;;5.47;1.67;;;17.50;33.60;;;;;;5074052;28;20191;-61
2023/02/26 05:37:33;;;;;;;6.47;1.70;;;17.50;33.60;;;;;;5074333;28;20218;-65
2023/02/26 05:40:00;;;;;;;6.50;2.00;;;17.50;33.60;;;;;;5074115;28;20240;-60
2023/02/26 05:42:27;;;;;;;7.43;1.60;;;17.50;33.60;;;;;;5074307;28;20268;-66
2023/02/26 05:44:54;;;;;;;4.32;1.58;;;17.50;33.70;;;;;;5073898;28;20241;-62
2023/02/26 05:47:22;;;;;;;4.10;2.08;;;17.50;33.70;;;;;;5074144;28;20223;-65
2023/02/26 05:49:49;;;;;;;6.35;1.88;;;17.50;33.70;;;;;;5073694;28;20187;-63
2023/02/26 05:52:16;;;;;;;6.38;1.75;;;17.50;33.70;;;;;;5073628;28;20227;-61
2023/02/26 05:54:44;;;;;;;5.07;1.80;;;17.50;33.70;;;;;;5073952;28;20195;-65
2023/02/26 05:57:11;;;;;;;5.85;1.83;;;17.50;33.70;;;;;;5074045;28;20218;-62
2023/02/26 05:59:38;;;;;;;3.30;1.45;;;17.50;33.70;;;;;;5073258;28;20195;-62
2023/02/26 06:02:05;;;;;;;5.03;1.60;;;17.50;33.80;;;;;;5073767;28;20225;-67
2023/02/26 06:04:34;;;;;;;4.97;1.70;;;17.50;33.70;;;;;;5073464;28;20190;-66
2023/02/26 06:07:01;;;;;;;6.45;1.77;;;17.50;33.80;;;;;;5073784;28;20256;-60
2023/02/26 06:09:28;;;;;;;4.78;1.50;;;17.50;33.80;;;;;;5073637;28;20191;-63
2023/02/26 06:11:56;;;;;;;6.15;2.03;;;17.50;33.80;;;;;;5073662;28;20227;-65
2023/02/26 06:14:23;;;;;;;3.60;1.60;;;17.50;33.80;;;;;;5073122;28;20560;-60
2023/02/26 06:16:50;;;;;;;7.10;1.88;;;17.50;33.80;;;;;;5073415;28;20218;-66
2023/02/26 06:19:17;;;;;;;5.75;1.50;;;17.50;33.80;;;;;;5073145;28;20230;-61
2023/02/26 06:21:45;;;;;;;4.07;1.58;;;17.50;33.90;;;;;;5073360;28;20219;-65
2023/02/26 06:24:13;;;;;;;7.85;1.85;;;17.50;33.90;;;;;;5073034;28;20703;-62
2023/02/26 06:26:40;;;;;;;4.20;1.27;;;17.50;33.90;;;;;;5073310;28;20219;-60
2023/02/26 06:29:07;;;;;;;4.32;1.42;;;17.50;33.90;;;;;;5073189;28;20183;-70
2023/02/26 06:31:34;;;;;;;2.85;1.30;;;17.50;33.90;;;;;;5073284;28;20218;-68
2023/02/26 06:34:01;;;;;;;5.60;1.77;;;17.40;33.80;;;;;;5072883;28;20237;-71
2023/02/26 06:36:28;;;;;;;6.38;1.90;;;17.50;33.90;;;;;;5073107;28;20648;-70
2023/02/26 06:38:57;;;;;;;5.40;1.67;;;17.50;34.00;;;;;;5073070;28;20237;-69
2023/02/26 06:41:24;;;;;;;7.85;2.20;;;17.40;33.80;;;;;;5073056;28;20211;-68
2023/02/26 06:43:51;;;;;;;6.57;1.77;;;17.40;33.90;;;;;;5073005;28;20187;-66
2023/02/26 06:46:18;;;;;;;3.85;1.20;;;17.40;33.90;;;;;;5072820;28;20260;-71
2023/02/26 06:48:45;;;;;;;4.28;1.67;;;17.40;33.90;;;;;;5072851;28;20256;-70
2023/02/26 06:51:12;;;;;;;7.07;1.85;;;17.40;34.00;;;;;;5072883;28;20191;-70
2023/02/26 06:53:39;;;;;;;3.65;1.38;;;17.40;34.00;;;;;;5072769;28;20226;-69
2023/02/26 06:56:08;;;;;;;5.13;1.40;;;17.40;34.00;;;;;;5072882;28;20191;-70
2023/02/26 06:58:35;;;;;;;4.88;1.35;;;17.40;34.00;;;;;;5072690;28;20244;-67
2023/02/26 07:01:04;;;;;;;5.47;1.35;;;17.40;34.10;;;;;;5072706;28;20190;-67
2023/02/26 07:03:31;;;;;;;5.50;1.33;;;17.40;34.10;;;;;;5072693;28;20191;-70
2023/02/26 07:05:58;;;;;;;4.90;1.55;;;17.40;34.20;;;;;;5072567;28;20191;-71
2023/02/26 07:08:25;;;;;;;3.17;1.20;;;17.40;34.20;;;;;;5072413;28;20237;-71
2023/02/26 07:10:52;;;;;;;4.30;1.48;;;17.40;34.20;;;;;;5071618;28;20240;-69
2023/02/26 07:13:21;;;;;;;6.00;1.80;;;17.40;34.20;;;;;;5072714;28;20230;-70
2023/02/26 07:15:48;;;;;;;5.93;1.55;;;17.40;34.20;;;;;;5072248;28;20715;-64
2023/02/26 07:18:15;;;;;;;4.47;1.65;;;17.40;34.30;;;;;;5071919;28;20723;-62
2023/02/26 07:20:43;;;;;;;4.07;1.40;;;17.40;34.30;;;;;;5072075;28;20292;-71
2023/02/26 07:23:11;;;;;;;4.30;1.38;;;17.40;34.30;;;;;;5072135;28;20232;-68
2023/02/26 07:25:38;;;;;;;3.03;1.00;;;17.40;34.30;;;;;;5072517;28;20237;-71
2023/02/26 07:28:06;;;;;;;5.05;1.60;;;17.40;34.30;;;;;;5072373;28;20214;-71
2023/02/26 07:30:35;;;;;;;4.85;1.25;;;17.40;34.30;;;;;;5072023;28;20187;-69
2023/02/26 07:33:02;;;;;;;4.68;1.50;;;17.30;34.20;;;;;;5071926;28;20226;-71
2023/02/26 07:35:29;;;;;;;3.45;1.50;;;17.40;34.30;;;;;;5072054;28;20187;-70
2023/02/26 07:37:56;;;;;;;2.88;1.42;;;17.30;34.20;;;;;;5072350;28;20264;-71
2023/02/26 07:40:23;;;;;;;7.38;1.65;;;17.40;34.30;;;;;;5072285;28;20187;-71
2023/02/26 07:42:50;;;;;;;4.63;1.40;;;17.30;34.80;;;;;;5072274;28;20283;-72
2023/02/26 07:45:21;;;;;;;4.78;1.65;;;17.30;34.20;;;;;;5072022;28;20240;-70
2023/02/26 07:47:50;;;;;;;3.08;1.45;;;17.30;34.20;;;;;;5072250;28;20218;-71
2023/02/26 07:50:17;;;;;;;5.20;1.48;;;17.30;34.20;;;;;;5071749;28;20653;-71
2023/02/26 07:52:45;;;;;;;2.55;1.15;;;17.30;34.20;;;;;;5071780;28;20222;-67
2023/02/26 07:55:12;;;;;;;8.90;1.77;;;17.30;34.20;;;;;;5072262;28;20182;-71
2023/02/26 07:57:39;;;;;;;2.80;1.38;;;17.30;34.20;;;;;;5071833;28;20769;-69
2023/02/26 08:00:08;;;;;;;5.90;1.40;;;17.30;34.20;;;;;;5072127;28;20555;-70
2023/02/26 08:02:35;;;;;;;3.67;1.77;;;17.30;34.20;;;;;;5071759;28;20704;-70
2023/02/26 08:05:04;;;;;;;3.90;1.60;;;17.30;34.20;;;;;;5071850;28;20199;-71
2023/02/26 08:07:32;;;;;;;5.22;1.30;;;17.30;34.20;;;;;;5071849;28;20225;-71
2023/02/26 08:09:59;;;;;;;6.63;1.55;;;17.30;34.20;;;;;;5071654;28;20187;-70
2023/02/26 08:12:26;;;;;;;5.03;1.38;;;17.30;34.20;;;;;;5072009;28;20234;-71
2023/02/26 08:14:53;;;;;;;4.60;1.65;;;17.30;34.20;;;;;;5071679;28;20195;-70
2023/02/26 08:17:20;;;;;;;3.72;1.42;;;17.30;34.20;;;;;;5071770;28;20223;-70
2023/02/26 08:19:47;;;;;;;4.97;1.55;;;17.30;34.20;;;;;;5071564;28;20284;-71
2023/02/26 08:22:15;;;;;;;4.20;1.50;;;17.30;34.80;;;;;;5072679;28;20276;-71
2023/02/26 08:24:42;;;;;;;7.38;1.60;;;17.30;34.20;;;;;;5075736;28;20187;-69
2023/02/26 08:27:09;;;;;;;4.97;1.40;;;17.30;34.20;;;;;;5075735;28;20223;-71
2023/02/26 08:29:37;;;;;;;5.35;1.67;;;17.30;34.20;;;;;;5075562;28;20641;-71
2023/02/26 08:32:04;;;;;;;6.38;1.30;;;17.30;34.20;;;;;;5075612;28;20218;-71
2023/02/26 08:34:31;;;;;;;6.07;1.50;;;17.30;34.20;;;;;;5075411;28;20241;-70
2023/02/26 08:36:58;;;;;;;5.90;2.13;;;17.20;34.10;;;;;;5075527;28;20215;-71
2023/02/26 08:39:26;;;;;;;4.88;1.42;;;17.20;34.10;;;;;;5075392;28;20187;-71
2023/02/26 08:41:53;;;;;;;6.97;1.80;;;17.20;34.10;;;;;;5075403;28;20219;-71
2023/02/26 08:44:20;;;;;;;5.18;1.75;;;17.20;34.10;;;;;;5075340;28;20203;-71
2023/02/26 08:46:47;;;;;;;4.80;1.60;;;17.20;34.10;;;;;;5075218;28;20218;-71
2023/02/26 08:49:14;;;;;;;5.45;1.60;;;17.20;34.10;;;;;;5075179;28;20183;-71
2023/02/26 08:51:41;;;;;;;3.65;1.23;;;17.20;34.10;;;;;;5074844;28;20218;-69
2023/02/26 08:54:09;;;;;;;3.88;1.50;;;17.20;34.10;;;;;;5075151;28;20272;-70
2023/02/26 08:56:37;;;;;;;5.78;1.33;;;17.20;34.10;;;;;;5075114;28;20240;-71
2023/02/26 08:59:04;;;;;;;5.13;1.50;;;17.20;34.10;;;;;;5074680;28;20191;-71
2023/02/26 09:01:31;;;;;;;4.25;1.13;;;17.20;34.10;;;;;;5074724;28;20218;-69
2023/02/26 09:03:58;;;;;;;3.88;1.73;;;17.20;34.10;;;;;;5074917;28;20327;-71
2023/02/26 09:06:25;;;;;;;6.85;1.48;;;17.20;34.10;;;;;;5074862;28;20187;-71
2023/02/26 09:08:53;;;;;;;5.82;1.40;;;17.20;34.10;;;;;;5074477;28;20660;-70
2023/02/26 09:11:20;;;;;;;5.13;1.73;;;17.20;34.10;;;;;;5074854;28;20199;-70
2023/02/26 09:13:49;;;;;;;5.25;1.50;;;17.20;34.10;;;;;;5074475;28;20219;-71
2023/02/26 09:16:16;;;;;;;6.22;1.58;;;17.20;34.10;;;;;;5074320;28;20613;-67
2023/02/26 09:18:43;;;;;;;5.28;1.67;;;17.20;34.10;;;;;;5074231;28;20223;-71
2023/02/26 09:21:10;;;;;;;5.05;1.40;;;17.20;34.10;;;;;;5074364;28;20603;-71
2023/02/26 09:23:37;;;;;;;3.72;1.60;;;17.10;34.10;;;;;;5074624;28;20595;-61
2023/02/26 09:26:04;;;;;;;4.18;1.48;;;17.10;34.00;;;;;;5074349;28;20240;-69
2023/02/26 09:28:31;;;;;;;4.47;1.40;;;17.10;34.00;;;;;;5074622;28;20276;-67
2023/02/26 09:31:00;;;;;;;4.05;1.48;;;17.10;34.00;;;;;;5074536;28;20323;-68
2023/02/26 09:33:27;;;;;;;4.75;1.55;;;17.20;34.10;;;;;;5074117;28;20231;-70
2023/02/26 09:35:54;;;;;;;6.10;1.38;;;17.10;34.00;;;;;;5073993;28;20187;-68
2023/02/26 09:38:21;;;;;;;2.47;1.20;;;17.10;34.00;;;;;;5074374;28;20223;-71
2023/02/26 09:40:51;;;;;;;3.97;1.20;;;17.10;34.00;;;;;;5074171;28;20248;-70
2023/02/26 09:43:54;;;;;;;5.25;1.58;;;17.10;34.00;;;;;;5074510;28;20219;-66
2023/02/26 09:46:35;;;;;;;3.38;1.60;;;17.10;34.00;;;;;;5051844;28;20194;-71
2023/02/26 09:49:10;;;;;;;5.78;1.48;;;17.10;34.00;;;;;;5074015;28;20241;-64
2023/02/26 09:51:37;;;;;;;7.55;1.63;;;17.10;34.00;;;;;;5073745;28;20286;-61
2023/02/26 09:54:12;;;;;;;6.45;1.40;;;17.10;34.00;;;;;;5073602;28;20272;-69
2023/02/26 09:56:39;;;;;;;4.50;1.80;;;17.10;34.10;;;;;;5073416;28;20271;-63
2023/02/26 09:59:06;;;;;;;5.45;1.58;;;17.10;34.00;;;;;;5073869;28;20195;-67
2023/02/26 10:01:43;;;;;;;3.13;1.25;;;17.10;34.00;;;;;;5073797;28;20191;-70
2023/02/26 10:04:16;;;;;;;5.50;1.35;;;17.10;34.10;;;;;;5073419;28;20186;-63
2023/02/26 10:06:58;;;;;;;3.50;1.20;;;17.10;34.10;;;;;;5073725;28;20222;-70
2023/02/26 10:09:36;;;;;;;3.38;1.23;;;17.10;34.00;;;;;;5073336;28;20653;-70
2023/02/26 10:12:09;;;;;;;3.25;1.20;;;17.10;34.00;;;;;;5073703;28;20272;-71
2023/02/26 10:14:41;;;;;;;3.47;1.40;;;17.10;34.00;;;;;;5073250;28;20218;-71
2023/02/26 10:17:18;;;;;;;3.83;1.30;;;17.10;34.00;;;;;;5073573;28;20215;-70
2023/02/26 10:19:50;;;;;;;3.63;1.60;;;17.10;34.00;;;;;;5073176;28;20226;-68
2023/02/26 10:22:23;;;;;;;4.70;1.50;;;17.10;34.00;;;;;;5073531;28;20215;-69
2023/02/26 10:24:54;;;;;;;5.32;1.08;;;17.10;34.00;;;;;;5073420;28;20194;-64
2023/02/26 10:27:31;;;;;;;4.57;1.40;;;17.10;34.00;;;;;;5073419;28;20325;-66
2023/02/26 10:30:02;;;;;;;5.65;1.65;;;17.10;34.00;;;;;;5073059;28;20270;-66
2023/02/26 10:32:37;;;;;;;6.30;1.60;;;17.00;33.90;;;;;;5072987;28;20218;-64
2023/02/26 10:35:08;;;;;;;5.70;1.50;;;17.10;34.00;;;;;;5073111;28;20214;-62
2023/02/26 10:37:46;;;;;;;6.47;1.50;;;17.10;34.00;;;;;;5072813;28;20297;-67
2023/02/26 10:40:18;;;;;;;5.68;1.50;;;17.00;34.00;;;;;;5073027;28;20190;-65
2023/02/26 10:42:49;;;;;;;3.13;1.00;;;17.10;34.10;;;;;;5072836;28;20218;-66
2023/02/26 10:45:37;;;;;;;3.97;1.30;;;17.10;34.10;;;;;;5072623;28;20191;-62
2023/02/26 10:48:27;;;;;;;3.13;1.33;;;17.00;34.00;;;;;;5072825;28;20248;-64
2023/02/26 10:50:57;;;;;;;2.08;1.30;;;17.10;34.10;;;;;;5072854;28;20191;-67
2023/02/26 10:53:27;;;;;;;4.22;1.17;;;17.00;34.00;;;;;;5072811;28;20642;-60
2023/02/26 10:56:02;;;;;;;3.28;1.15;;;17.10;34.10;;;;;;5072761;28;20252;-66
2023/02/26 10:58:29;;;;;;;5.25;1.13;;;17.00;34.10;;;;;;5072672;28;20214;-66
2023/02/26 11:00:57;;;;;;;6.03;1.50;;;17.00;34.10;;;;;;5072632;28;20191;-66
2023/02/26 11:03:32;;;;;;;4.32;1.40;;;17.00;34.10;;;;;;5072378;28;20708;-66
2023/02/26 11:05:59;;;;;;;4.78;1.58;;;17.00;34.10;;;;;;5072371;28;20673;-70
2023/02/26 11:08:28;;;;;;;4.22;1.45;;;17.00;34.00;;;;;;5072519;28;20218;-67
2023/02/26 11:10:57;;;;;;;3.08;1.20;;;17.00;34.00;;;;;;5072651;28;20244;-70
2023/02/26 11:13:26;;;;;;;4.07;1.40;;;17.00;34.00;;;;;;5072306;28;20276;-64
2023/02/26 11:15:55;;;;;;;4.05;1.40;;;17.00;34.00;;;;;;5072537;28;20248;-63
2023/02/26 11:18:30;;;;;;;5.50;1.58;;;17.00;34.00;;;;;;5072402;28;20283;-64
2023/02/26 11:20:59;;;;;;;3.90;1.38;;;17.00;34.00;;;;;;5072296;28;20782;-69
2023/02/26 11:23:30;;;;;;;4.10;1.48;;;17.00;33.90;;;;;;5072989;28;20266;-70
2023/02/26 11:26:04;;;;;;;5.03;1.27;;;17.00;34.00;;;;;;5072212;28;20236;-68
2023/02/26 11:28:34;;;;;;;4.65;1.40;;;17.00;33.90;;;;;;5072531;28;20628;-61
2023/02/26 11:31:05;;;;;;;3.05;1.50;;;17.00;33.90;;;;;;5072499;28;20202;-64
2023/02/26 11:33:38;;;;;;;4.68;1.70;;;17.00;33.90;;;;;;5072136;28;20245;-68
2023/02/26 11:36:11;;;;;;;3.85;1.30;;;17.00;33.90;;;;;;5072040;28;20187;-62
2023/02/26 11:38:39;;;;;;;4.43;1.52;;;17.00;33.90;;;;;;5072373;28;20321;-61
2023/02/26 11:41:07;;;;;;;3.13;1.48;;;17.00;33.90;;;;;;5072386;28;20197;-70
2023/02/26 11:43:37;;;;;;;2.53;1.20;;;17.00;33.90;;;;;;5072370;28;20214;-64
2023/02/26 11:46:06;;;;;;;5.10;1.45;;;17.00;33.90;;;;;;5071882;28;20190;-66
2023/02/26 11:48:41;;;;;;;2.65;1.10;;;17.00;33.90;;;;;;5071858;28;20249;-60
2023/02/26 11:51:13;;;;;;;4.07;1.30;;;16.90;33.90;;;;;;5071905;28;20648;-66
2023/02/26 11:53:48;;;;;;;3.63;1.20;;;17.00;33.90;;;;;;5071737;28;20597;-66
2023/02/26 11:56:20;;;;;;;3.05;1.63;;;17.00;33.90;;;;;;5072175;28;20190;-63
2023/02/26 11:58:50;;;;;;;2.63;1.02;;;17.00;33.90;;;;;;5075155;28;20773;-61
2023/02/26 12:01:17;;;;;;;3.28;1.30;;;16.90;33.90;;;;;;5076256;28;20257;-64
2023/02/26 12:03:49;;;;;;;3.05;1.23;;;16.90;33.90;;;;;;5076090;28;20222;-60
2023/02/26 12:06:18;;;;;;;3.88;1.30;;;16.90;33.90;;;;;;5075642;28;20191;-62
2023/02/26 12:08:46;;;;;;;3.70;1.50;;;16.90;33.80;;;;;;5075603;28;20822;-62
2023/02/26 12:11:52;;;;;;;4.22;1.30;;;16.90;34.40;;;;;;5076017;28;20642;-66
2023/02/26 12:14:47;;;;;;;2.15;1.23;;;16.90;33.40;;;;;;5072177;28;20699;-61
2023/02/26 12:17:32;;;;;;;3.15;1.45;;;16.90;33.60;;;;;;5075457;28;20662;-60
2023/02/26 12:20:14;;;;;;;4.47;1.45;;;16.90;33.60;;;;;;5075474;28;20313;-62
2023/02/26 12:22:53;;;;;;;5.40;1.50;;;16.90;33.40;;;;;;5075804;28;20230;-62
2023/02/26 12:25:37;;;;;;;4.30;1.30;;;16.90;33.20;;;;;;5075650;28;20187;-63
2023/02/26 12:28:22;;;;;;;3.10;1.50;;;16.90;33.30;;;;;;5075818;28;20252;-64
2023/02/26 12:31:04;;;;;;;2.60;1.30;;;16.90;33.30;;;;;;5075833;28;20248;-65
2023/02/26 12:33:41;;;;;;;5.78;1.50;;;16.90;33.20;;;;;;5075429;28;20272;-68
2023/02/26 12:36:25;;;;;;;3.83;1.50;;;16.90;33.20;;;;;;5075599;28;20190;-69
2023/02/26 12:39:04;;;;;;;2.88;1.40;;;16.80;33.00;;;;;;5075578;28;20215;-63
2023/02/26 12:41:56;;;;;;;4.32;1.60;;;16.80;33.10;;;;;;5075435;28;20214;-64
2023/02/26 12:44:55;;;;;;;2.72;1.30;;;16.90;33.10;;;;;;5075324;28;20193;-60
2023/02/26 12:47:41;;;;;;;2.42;1.20;;;16.80;32.90;;;;;;5075216;28;20268;-64
2023/02/26 12:50:44;;;;;;;3.65;1.60;;;16.80;33.00;;;;;;5075228;28;20220;-64
2023/02/26 12:53:44;;;;;;;2.40;1.42;;;16.80;32.90;;;;;;5075059;28;20218;-67
2023/02/26 12:56:40;;;;;;;4.43;1.38;;;16.80;32.80;;;;;;5051755;28;20630;-68
2023/02/26 12:59:20;;;;;;;2.85;1.38;;;16.80;32.80;;;;;;5032436;28;20216;-66
2023/02/26 13:02:07;;;;;;;2.65;1.15;;;16.80;32.80;;;;;;5032739;28;20192;-62
2023/02/26 13:05:07;;;;;;;4.75;1.50;;;16.80;32.60;;;;;;5032462;28;20552;-64
2023/02/26 13:08:01;;;;;;;3.35;1.15;;;16.70;32.50;;;;;;5032584;28;20220;-66
2023/02/26 13:10:45;;;;;;;3.72;1.38;;;16.70;32.50;;;;;;5031274;28;20246;-61